sensor_id;sensor_type;location;lat;lon;timestamp;temperature;humidity
41694;DHT22;27377;50.666;9.150;2022-12-18T00:00:41;-9.70;99.90
41694;DHT22;27377;50.666;9.150;2022-12-18T00:03:07;-9.60;99.90
41694;DHT22;27377;50.666;9.150;2022-12-18T00:05:32;-9.70;99.90
41694;DHT22;27377;50.666;9.150;2022-12-18T00:07:58;-9.70;99.90
41694;DHT22;27377;50.666;9.150;2022-12-18T00:10:23;-9.70;99.90
41694;DHT22;27377;50.666;9.150;2022-12-18T00:12:49;-9.70;99.90
41694;DHT22;27377;50.666;9.150;2022-12-18T00:15:14;-9.70;99.90
41694;DHT22;27377;50.666;9.150;2022-12-18T00:17:40;-9.70;99.90
41694;DHT22;27377;50.666;9.150;2022-12-18T00:20:06;-9.70;99.90
41694;DHT22;27377;50.666;9.150;2022-12-18T00:22:32;-9.80;99.90
41694;DHT22;27377;50.666;9.150;2022-12-18T00:24:57;-9.80;99.90
41694;DHT22;27377;50.666;9.150;2022-12-18T00:27:23;-9.90;99.90
41694;DHT22;27377;50.666;9.150;2022-12-18T00:29:48;-9.80;99.90
41694;DHT22;27377;50.666;9.150;2022-12-18T00:32:14;-9.80;99.90
41694;DHT22;27377;50.666;9.150;2022-12-18T00:34:40;-9.80;99.90
41694;DHT22;27377;50.666;9.150;2022-12-18T00:37:05;-9.80;99.90
41694;DHT22;27377;50.666;9.150;2022-12-18T00:39:31;-9.90;99.90
41694;DHT22;27377;50.666;9.150;2022-12-18T00:41:56;-9.90;99.90
41694;DHT22;27377;50.666;9.150;2022-12-18T00:44:40;-9.80;99.90
41694;DHT22;27377;50.666;9.150;2022-12-18T00:47:06;-9.80;99.90
41694;DHT22;27377;50.666;9.150;2022-12-18T00:49:31;-9.80;99.90
41694;DHT22;27377;50.666;9.150;2022-12-18T00:51:57;-9.90;99.90
41694;DHT22;27377;50.666;9.150;2022-12-18T00:54:22;-9.90;99.90
41694;DHT22;27377;50.666;9.150;2022-12-18T00:56:48;-9.90;99.90
41694;DHT22;27377;50.666;9.150;2022-12-18T00:59:14;-9.90;99.90
41694;DHT22;27377;50.666;9.150;2022-12-18T01:01:39;-9.90;99.90
41694;DHT22;27377;50.666;9.150;2022-12-18T01:04:05;-9.90;99.90
41694;DHT22;27377;50.666;9.150;2022-12-18T01:06:31;-10.00;99.90
41694;DHT22;27377;50.666;9.150;2022-12-18T01:08:56;-10.00;99.90
41694;DHT22;27377;50.666;9.150;2022-12-18T01:11:22;-10.10;99.90
41694;DHT22;27377;50.666;9.150;2022-12-18T01:13:48;-10.10;99.90
41694;DHT22;27377;50.666;9.150;2022-12-18T01:16:15;-10.10;99.90
41694;DHT22;27377;50.666;9.150;2022-12-18T01:18:41;-10.00;99.90
41694;DHT22;27377;50.666;9.150;2022-12-18T01:21:12;-10.00;99.90
41694;DHT22;27377;50.666;9.150;2022-12-18T01:23:37;-9.90;99.90
41694;DHT22;27377;50.666;9.150;2022-12-18T01:26:15;-9.90;99.90
41694;DHT22;27377;50.666;9.150;2022-12-18T01:28:41;-9.90;99.90
41694;DHT22;27377;50.666;9.150;2022-12-18T01:31:19;-9.90;99.90
41694;DHT22;27377;50.666;9.150;2022-12-18T01:33:45;-9.90;99.90
41694;DHT22;27377;50.666;9.150;2022-12-18T01:38:44;-10.00;99.90
41694;DHT22;27377;50.666;9.150;2022-12-18T01:41:09;-10.00;99.90
41694;DHT22;27377;50.666;9.150;2022-12-18T01:43:43;-10.10;99.90
41694;DHT22;27377;50.666;9.150;2022-12-18T01:46:09;-10.00;99.90
41694;DHT22;27377;50.666;9.150;2022-12-18T01:48:35;-10.00;99.90
41694;DHT22;27377;50.666;9.150;2022-12-18T01:51:01;-10.10;99.90
41694;DHT22;27377;50.666;9.150;2022-12-18T01:53:27;-10.10;99.90
41694;DHT22;27377;50.666;9.150;2022-12-18T01:55:55;-10.10;99.90
41694;DHT22;27377;50.666;9.150;2022-12-18T01:58:30;-10.10;99.90
41694;DHT22;27377;50.666;9.150;2022-12-18T02:00:57;-10.10;99.90
41694;DHT22;27377;50.666;9.150;2022-12-18T02:03:22;-10.10;99.90
41694;DHT22;27377;50.666;9.150;2022-12-18T02:06:13;-10.10;99.90
41694;DHT22;27377;50.666;9.150;2022-12-18T02:09:02;-10.00;99.90
41694;DHT22;27377;50.666;9.150;2022-12-18T02:11:50;-10.00;99.90
41694;DHT22;27377;50.666;9.150;2022-12-18T02:14:43;-10.10;99.90
41694;DHT22;27377;50.666;9.150;2022-12-18T02:17:26;-10.10;99.90
41694;DHT22;27377;50.666;9.150;2022-12-18T02:20:13;-10.20;99.90
41694;DHT22;27377;50.666;9.150;2022-12-18T02:28:09;-10.10;99.90
41694;DHT22;27377;50.666;9.150;2022-12-18T02:30:37;-10.10;99.90
41694;DHT22;27377;50.666;9.150;2022-12-18T02:33:06;-10.20;99.90
41694;DHT22;27377;50.666;9.150;2022-12-18T02:35:34;-10.20;99.90
41694;DHT22;27377;50.666;9.150;2022-12-18T02:38:01;-10.20;99.90
41694;DHT22;27377;50.666;9.150;2022-12-18T02:40:28;-10.10;99.90
41694;DHT22;27377;50.666;9.150;2022-12-18T02:42:55;-10.20;99.90
41694;DHT22;27377;50.666;9.150;2022-12-18T02:45:20;-10.20;99.90
41694;DHT22;27377;50.666;9.150;2022-12-18T02:47:48;-10.20;99.90
41694;DHT22;27377;50.666;9.150;2022-12-18T02:50:18;-10.30;99.90
41694;DHT22;27377;50.666;9.150;2022-12-18T02:53:09;-10.30;99.90
41694;DHT22;27377;50.666;9.150;2022-12-18T03:01:03;-10.40;99.90
41694;DHT22;27377;50.666;9.150;2022-12-18T03:03:41;-10.40;99.90
41694;DHT22;27377;50.666;9.150;2022-12-18T03:06:40;-10.40;99.90
41694;DHT22;27377;50.666;9.150;2022-12-18T03:09:10;-10.40;99.90
41694;DHT22;27377;50.666;9.150;2022-12-18T03:11:41;-10.40;99.90
41694;DHT22;27377;50.666;9.150;2022-12-18T03:14:28;-10.40;99.90
41694;DHT22;27377;50.666;9.150;2022-12-18T03:17:03;-10.40;99.90
41694;DHT22;27377;50.666;9.150;2022-12-18T03:19:31;-10.40;99.90
41694;DHT22;27377;50.666;9.150;2022-12-18T03:21:59;-10.40;99.90
41694;DHT22;27377;50.666;9.150;2022-12-18T03:24:28;-10.50;99.90
41694;DHT22;27377;50.666;9.150;2022-12-18T03:27:00;-10.50;99.90
41694;DHT22;27377;50.666;9.150;2022-12-18T03:29:36;-10.50;99.90
41694;DHT22;27377;50.666;9.150;2022-12-18T03:32:07;-10.50;99.90
41694;DHT22;27377;50.666;9.150;2022-12-18T03:34:38;-10.60;99.90
41694;DHT22;27377;50.666;9.150;2022-12-18T03:37:05;-10.50;99.90
41694;DHT22;27377;50.666;9.150;2022-12-18T03:39:33;-10.50;99.90
41694;DHT22;27377;50.666;9.150;2022-12-18T03:42:06;-10.50;99.90
41694;DHT22;27377;50.666;9.150;2022-12-18T03:44:50;-10.50;99.90
41694;DHT22;27377;50.666;9.150;2022-12-18T03:47:38;-10.50;99.90
41694;DHT22;27377;50.666;9.150;2022-12-18T03:50:13;-10.50;99.90
41694;DHT22;27377;50.666;9.150;2022-12-18T03:55:19;-10.40;99.90
41694;DHT22;27377;50.666;9.150;2022-12-18T03:57:47;-10.40;99.90
41694;DHT22;27377;50.666;9.150;2022-12-18T04:00:15;-10.40;99.90
41694;DHT22;27377;50.666;9.150;2022-12-18T04:02:45;-10.40;99.90
41694;DHT22;27377;50.666;9.150;2022-12-18T04:05:13;-10.40;99.90
41694;DHT22;27377;50.666;9.150;2022-12-18T04:07:40;-10.50;99.90
41694;DHT22;27377;50.666;9.150;2022-12-18T04:10:07;-10.60;99.90
41694;DHT22;27377;50.666;9.150;2022-12-18T04:12:37;-10.60;99.90
41694;DHT22;27377;50.666;9.150;2022-12-18T04:15:03;-10.60;99.90
41694;DHT22;27377;50.666;9.150;2022-12-18T04:17:29;-10.60;99.90
41694;DHT22;27377;50.666;9.150;2022-12-18T04:19:54;-10.70;99.90
41694;DHT22;27377;50.666;9.150;2022-12-18T04:22:20;-10.70;99.90
41694;DHT22;27377;50.666;9.150;2022-12-18T04:24:45;-10.70;99.90
41694;DHT22;27377;50.666;9.150;2022-12-18T04:27:11;-10.70;99.90
41694;DHT22;27377;50.666;9.150;2022-12-18T04:29:37;-10.70;99.90
41694;DHT22;27377;50.666;9.150;2022-12-18T04:32:02;-10.70;99.90
41694;DHT22;27377;50.666;9.150;2022-12-18T04:34:28;-10.80;99.90
41694;DHT22;27377;50.666;9.150;2022-12-18T04:36:54;-10.80;99.90
41694;DHT22;27377;50.666;9.150;2022-12-18T04:39:19;-10.80;99.90
41694;DHT22;27377;50.666;9.150;2022-12-18T04:41:45;-10.80;99.90
41694;DHT22;27377;50.666;9.150;2022-12-18T04:44:11;-10.80;99.90
41694;DHT22;27377;50.666;9.150;2022-12-18T04:46:36;-10.80;99.90
41694;DHT22;27377;50.666;9.150;2022-12-18T04:49:02;-10.80;99.90
41694;DHT22;27377;50.666;9.150;2022-12-18T04:51:27;-10.80;99.90
41694;DHT22;27377;50.666;9.150;2022-12-18T04:53:53;-10.90;99.90
41694;DHT22;27377;50.666;9.150;2022-12-18T04:56:19;-10.90;99.90
41694;DHT22;27377;50.666;9.150;2022-12-18T04:58:45;-10.90;99.90
41694;DHT22;27377;50.666;9.150;2022-12-18T05:01:12;-10.90;99.90
41694;DHT22;27377;50.666;9.150;2022-12-18T05:03:38;-10.90;99.90
41694;DHT22;27377;50.666;9.150;2022-12-18T05:06:05;-10.90;99.90
41694;DHT22;27377;50.666;9.150;2022-12-18T05:08:31;-10.90;99.90
41694;DHT22;27377;50.666;9.150;2022-12-18T05:11:01;-10.90;99.90
41694;DHT22;27377;50.666;9.150;2022-12-18T05:13:28;-10.90;99.90
41694;DHT22;27377;50.666;9.150;2022-12-18T05:15:54;-10.90;99.90
41694;DHT22;27377;50.666;9.150;2022-12-18T05:18:20;-10.90;99.90
41694;DHT22;27377;50.666;9.150;2022-12-18T05:20:46;-10.90;99.90
41694;DHT22;27377;50.666;9.150;2022-12-18T05:23:11;-10.90;99.90
41694;DHT22;27377;50.666;9.150;2022-12-18T05:25:37;-10.90;99.90
41694;DHT22;27377;50.666;9.150;2022-12-18T05:28:03;-10.90;99.90
41694;DHT22;27377;50.666;9.150;2022-12-18T05:30:28;-10.90;99.90
41694;DHT22;27377;50.666;9.150;2022-12-18T05:32:54;-10.90;99.90
41694;DHT22;27377;50.666;9.150;2022-12-18T05:35:19;-10.90;99.90
41694;DHT22;27377;50.666;9.150;2022-12-18T05:37:45;-10.80;99.90
41694;DHT22;27377;50.666;9.150;2022-12-18T05:40:11;-10.80;99.90
41694;DHT22;27377;50.666;9.150;2022-12-18T05:42:37;-10.70;99.90
41694;DHT22;27377;50.666;9.150;2022-12-18T05:45:03;-10.70;99.90
41694;DHT22;27377;50.666;9.150;2022-12-18T05:47:28;-10.70;99.90
41694;DHT22;27377;50.666;9.150;2022-12-18T05:49:54;-10.70;99.90
41694;DHT22;27377;50.666;9.150;2022-12-18T05:52:20;-10.60;99.90
41694;DHT22;27377;50.666;9.150;2022-12-18T05:54:46;-10.60;99.90
41694;DHT22;27377;50.666;9.150;2022-12-18T05:57:11;-10.70;99.90
41694;DHT22;27377;50.666;9.150;2022-12-18T05:59:37;-10.70;99.90
41694;DHT22;27377;50.666;9.150;2022-12-18T06:02:03;-10.70;99.90
41694;DHT22;27377;50.666;9.150;2022-12-18T06:04:28;-10.70;99.90
41694;DHT22;27377;50.666;9.150;2022-12-18T06:06:54;-10.70;99.90
41694;DHT22;27377;50.666;9.150;2022-12-18T06:09:20;-10.70;99.90
41694;DHT22;27377;50.666;9.150;2022-12-18T06:11:45;-10.80;99.90
41694;DHT22;27377;50.666;9.150;2022-12-18T06:14:11;-10.80;99.90
41694;DHT22;27377;50.666;9.150;2022-12-18T06:16:36;-10.90;99.90
41694;DHT22;27377;50.666;9.150;2022-12-18T06:19:04;-10.80;99.90
41694;DHT22;27377;50.666;9.150;2022-12-18T06:21:30;-10.80;99.90
41694;DHT22;27377;50.666;9.150;2022-12-18T06:23:56;-10.80;99.90
41694;DHT22;27377;50.666;9.150;2022-12-18T06:26:22;-10.90;99.90
41694;DHT22;27377;50.666;9.150;2022-12-18T06:28:48;-10.90;99.90
41694;DHT22;27377;50.666;9.150;2022-12-18T06:31:13;-10.90;99.90
41694;DHT22;27377;50.666;9.150;2022-12-18T06:33:39;-10.90;99.90
41694;DHT22;27377;50.666;9.150;2022-12-18T06:36:10;-11.00;99.90
41694;DHT22;27377;50.666;9.150;2022-12-18T06:38:40;-11.00;99.90
41694;DHT22;27377;50.666;9.150;2022-12-18T06:41:07;-11.00;99.90
41694;DHT22;27377;50.666;9.150;2022-12-18T06:43:33;-11.00;99.90
41694;DHT22;27377;50.666;9.150;2022-12-18T06:45:59;-10.90;99.90
41694;DHT22;27377;50.666;9.150;2022-12-18T06:48:25;-11.00;99.90
41694;DHT22;27377;50.666;9.150;2022-12-18T06:50:51;-11.10;99.90
41694;DHT22;27377;50.666;9.150;2022-12-18T06:53:16;-11.10;99.90
41694;DHT22;27377;50.666;9.150;2022-12-18T06:55:43;-11.10;99.90
41694;DHT22;27377;50.666;9.150;2022-12-18T06:58:08;-11.10;99.90
41694;DHT22;27377;50.666;9.150;2022-12-18T07:00:34;-11.00;99.90
41694;DHT22;27377;50.666;9.150;2022-12-18T07:03:00;-11.10;99.90
41694;DHT22;27377;50.666;9.150;2022-12-18T07:05:25;-11.00;99.90
41694;DHT22;27377;50.666;9.150;2022-12-18T07:07:51;-11.00;99.90
41694;DHT22;27377;50.666;9.150;2022-12-18T07:10:17;-11.00;99.90
41694;DHT22;27377;50.666;9.150;2022-12-18T07:12:43;-11.00;99.90
41694;DHT22;27377;50.666;9.150;2022-12-18T07:15:09;-11.00;99.90
41694;DHT22;27377;50.666;9.150;2022-12-18T07:17:35;-11.00;99.90
41694;DHT22;27377;50.666;9.150;2022-12-18T07:20:03;-11.00;99.90
41694;DHT22;27377;50.666;9.150;2022-12-18T07:22:29;-11.10;99.90
41694;DHT22;27377;50.666;9.150;2022-12-18T07:24:54;-11.10;99.90
41694;DHT22;27377;50.666;9.150;2022-12-18T07:27:21;-11.10;99.90
41694;DHT22;27377;50.666;9.150;2022-12-18T07:29:47;-11.10;99.90
41694;DHT22;27377;50.666;9.150;2022-12-18T07:32:12;-11.00;99.90
41694;DHT22;27377;50.666;9.150;2022-12-18T07:34:38;-11.10;99.90
41694;DHT22;27377;50.666;9.150;2022-12-18T07:37:03;-11.00;99.90
41694;DHT22;27377;50.666;9.150;2022-12-18T07:39:30;-11.00;99.90
41694;DHT22;27377;50.666;9.150;2022-12-18T07:41:55;-11.10;99.90
41694;DHT22;27377;50.666;9.150;2022-12-18T07:44:39;-11.10;99.90
41694;DHT22;27377;50.666;9.150;2022-12-18T07:47:05;-11.10;99.90
41694;DHT22;27377;50.666;9.150;2022-12-18T07:49:30;-11.10;99.90
41694;DHT22;27377;50.666;9.150;2022-12-18T07:51:56;-11.10;99.90
41694;DHT22;27377;50.666;9.150;2022-12-18T07:54:23;-11.10;99.90
41694;DHT22;27377;50.666;9.150;2022-12-18T07:56:49;-11.10;99.90
41694;DHT22;27377;50.666;9.150;2022-12-18T07:59:15;-11.00;99.90
41694;DHT22;27377;50.666;9.150;2022-12-18T08:01:40;-11.00;99.90
41694;DHT22;27377;50.666;9.150;2022-12-18T08:04:06;-11.10;99.90
41694;DHT22;27377;50.666;9.150;2022-12-18T08:06:31;-11.00;99.90
41694;DHT22;27377;50.666;9.150;2022-12-18T08:08:57;-11.10;99.90
41694;DHT22;27377;50.666;9.150;2022-12-18T08:11:27;-11.00;99.90
41694;DHT22;27377;50.666;9.150;2022-12-18T08:13:53;-11.00;99.90
41694;DHT22;27377;50.666;9.150;2022-12-18T08:16:20;-11.00;99.90
41694;DHT22;27377;50.666;9.150;2022-12-18T08:18:51;-11.00;99.90
41694;DHT22;27377;50.666;9.150;2022-12-18T08:21:19;-11.00;99.90
41694;DHT22;27377;50.666;9.150;2022-12-18T08:23:46;-10.90;99.90
41694;DHT22;27377;50.666;9.150;2022-12-18T08:26:12;-10.90;99.90
41694;DHT22;27377;50.666;9.150;2022-12-18T08:28:38;-10.90;99.90
41694;DHT22;27377;50.666;9.150;2022-12-18T08:31:04;-10.90;99.90
41694;DHT22;27377;50.666;9.150;2022-12-18T08:33:30;-10.80;99.90
41694;DHT22;27377;50.666;9.150;2022-12-18T08:35:55;-10.80;99.90
41694;DHT22;27377;50.666;9.150;2022-12-18T08:38:21;-10.80;99.90
41694;DHT22;27377;50.666;9.150;2022-12-18T08:40:48;-10.70;99.90
41694;DHT22;27377;50.666;9.150;2022-12-18T08:43:13;-10.70;99.90
41694;DHT22;27377;50.666;9.150;2022-12-18T08:46:14;-10.70;99.90
41694;DHT22;27377;50.666;9.150;2022-12-18T08:48:39;-10.60;99.90
41694;DHT22;27377;50.666;9.150;2022-12-18T08:51:05;-10.50;99.90
41694;DHT22;27377;50.666;9.150;2022-12-18T08:53:31;-10.50;99.90
41694;DHT22;27377;50.666;9.150;2022-12-18T08:55:56;-10.40;99.90
41694;DHT22;27377;50.666;9.150;2022-12-18T08:58:22;-10.40;99.90
41694;DHT22;27377;50.666;9.150;2022-12-18T09:00:48;-10.30;99.90
41694;DHT22;27377;50.666;9.150;2022-12-18T09:03:15;-10.30;99.90
41694;DHT22;27377;50.666;9.150;2022-12-18T09:05:41;-10.20;99.90
41694;DHT22;27377;50.666;9.150;2022-12-18T09:08:08;-10.10;99.90
41694;DHT22;27377;50.666;9.150;2022-12-18T09:10:40;-10.00;99.90
41694;DHT22;27377;50.666;9.150;2022-12-18T09:13:06;-10.00;99.90
41694;DHT22;27377;50.666;9.150;2022-12-18T09:15:31;-9.90;99.90
41694;DHT22;27377;50.666;9.150;2022-12-18T09:17:57;-9.80;99.90
41694;DHT22;27377;50.666;9.150;2022-12-18T09:20:22;-9.70;99.90
41694;DHT22;27377;50.666;9.150;2022-12-18T09:22:48;-9.60;99.90
41694;DHT22;27377;50.666;9.150;2022-12-18T09:25:13;-9.50;99.90
41694;DHT22;27377;50.666;9.150;2022-12-18T09:27:39;-9.50;99.90
41694;DHT22;27377;50.666;9.150;2022-12-18T09:30:05;-9.40;99.90
41694;DHT22;27377;50.666;9.150;2022-12-18T09:32:31;-9.30;99.90
41694;DHT22;27377;50.666;9.150;2022-12-18T09:34:57;-9.30;99.90
41694;DHT22;27377;50.666;9.150;2022-12-18T09:37:22;-9.20;99.90
41694;DHT22;27377;50.666;9.150;2022-12-18T09:39:48;-9.10;99.90
41694;DHT22;27377;50.666;9.150;2022-12-18T09:42:23;-9.00;99.90
41694;DHT22;27377;50.666;9.150;2022-12-18T09:44:54;-8.90;99.90
41694;DHT22;27377;50.666;9.150;2022-12-18T09:47:35;-8.80;99.90
41694;DHT22;27377;50.666;9.150;2022-12-18T09:50:05;-8.70;99.90
41694;DHT22;27377;50.666;9.150;2022-12-18T09:57:52;-8.40;99.90
41694;DHT22;27377;50.666;9.150;2022-12-18T10:00:21;-8.40;99.90
41694;DHT22;27377;50.666;9.150;2022-12-18T10:02:48;-8.30;99.90
41694;DHT22;27377;50.666;9.150;2022-12-18T10:05:17;-8.20;99.90
41694;DHT22;27377;50.666;9.150;2022-12-18T10:13:40;-7.90;99.90
41694;DHT22;27377;50.666;9.150;2022-12-18T10:16:17;-7.90;99.90
41694;DHT22;27377;50.666;9.150;2022-12-18T10:19:50;-7.80;99.90
41694;DHT22;27377;50.666;9.150;2022-12-18T10:22:02;-7.70;99.90
41694;DHT22;27377;50.666;9.150;2022-12-18T10:24:39;-7.70;99.90
41694;DHT22;27377;50.666;9.150;2022-12-18T10:27:23;-7.60;99.90
41694;DHT22;27377;50.666;9.150;2022-12-18T10:29:49;-7.60;99.90
41694;DHT22;27377;50.666;9.150;2022-12-18T10:32:18;-7.50;99.90
41694;DHT22;27377;50.666;9.150;2022-12-18T10:34:46;-7.50;99.90
41694;DHT22;27377;50.666;9.150;2022-12-18T10:37:17;-7.40;99.90
41694;DHT22;27377;50.666;9.150;2022-12-18T10:39:44;-7.30;99.90
41694;DHT22;27377;50.666;9.150;2022-12-18T10:42:19;-7.30;99.90
41694;DHT22;27377;50.666;9.150;2022-12-18T10:44:45;-7.20;99.90
41694;DHT22;27377;50.666;9.150;2022-12-18T10:47:18;-7.20;99.90
41694;DHT22;27377;50.666;9.150;2022-12-18T10:49:51;-7.10;99.90
41694;DHT22;27377;50.666;9.150;2022-12-18T10:52:22;-7.10;99.90
41694;DHT22;27377;50.666;9.150;2022-12-18T10:54:52;-7.00;99.90
41694;DHT22;27377;50.666;9.150;2022-12-18T10:57:36;-7.00;99.90
41694;DHT22;27377;50.666;9.150;2022-12-18T11:00:28;-6.90;99.90
41694;DHT22;27377;50.666;9.150;2022-12-18T11:02:55;-6.90;99.90
41694;DHT22;27377;50.666;9.150;2022-12-18T11:05:27;-6.90;99.90
41694;DHT22;27377;50.666;9.150;2022-12-18T11:07:54;-6.80;99.90
41694;DHT22;27377;50.666;9.150;2022-12-18T11:10:22;-6.80;99.90
41694;DHT22;27377;50.666;9.150;2022-12-18T11:12:49;-6.70;99.90
41694;DHT22;27377;50.666;9.150;2022-12-18T11:15:21;-6.70;99.90
41694;DHT22;27377;50.666;9.150;2022-12-18T11:17:50;-6.70;99.90
41694;DHT22;27377;50.666;9.150;2022-12-18T11:23:13;-6.60;99.90
41694;DHT22;27377;50.666;9.150;2022-12-18T11:25:39;-6.50;99.90
41694;DHT22;27377;50.666;9.150;2022-12-18T11:28:06;-6.50;99.90
41694;DHT22;27377;50.666;9.150;2022-12-18T11:31:09;-6.40;99.90
41694;DHT22;27377;50.666;9.150;2022-12-18T11:33:39;-6.40;99.90
41694;DHT22;27377;50.666;9.150;2022-12-18T11:36:08;-6.40;99.90
41694;DHT22;27377;50.666;9.150;2022-12-18T11:38:39;-6.30;99.90
41694;DHT22;27377;50.666;9.150;2022-12-18T11:41:29;-6.30;99.90
41694;DHT22;27377;50.666;9.150;2022-12-18T11:44:21;-6.30;99.90
41694;DHT22;27377;50.666;9.150;2022-12-18T11:46:56;-6.20;99.90
41694;DHT22;27377;50.666;9.150;2022-12-18T11:49:28;-6.10;99.90
41694;DHT22;27377;50.666;9.150;2022-12-18T11:52:19;-6.10;99.90
41694;DHT22;27377;50.666;9.150;2022-12-18T11:54:46;-6.10;99.90
41694;DHT22;27377;50.666;9.150;2022-12-18T11:57:32;-6.00;99.90
41694;DHT22;27377;50.666;9.150;2022-12-18T12:00:16;-6.00;99.90
41694;DHT22;27377;50.666;9.150;2022-12-18T12:11:43;-5.80;99.90
41694;DHT22;27377;50.666;9.150;2022-12-18T12:14:40;-5.80;99.90
41694;DHT22;27377;50.666;9.150;2022-12-18T12:20:08;-5.70;99.90
41694;DHT22;27377;50.666;9.150;2022-12-18T12:25:33;-5.60;99.90
41694;DHT22;27377;50.666;9.150;2022-12-18T12:28:36;-5.60;99.90
41694;DHT22;27377;50.666;9.150;2022-12-18T12:34:07;-5.50;99.90
41694;DHT22;27377;50.666;9.150;2022-12-18T12:39:16;-5.50;99.90
41694;DHT22;27377;50.666;9.150;2022-12-18T12:41:45;-5.40;99.90
41694;DHT22;27377;50.666;9.150;2022-12-18T12:44:42;-5.40;99.90
41694;DHT22;27377;50.666;9.150;2022-12-18T12:47:28;-5.40;99.90
41694;DHT22;27377;50.666;9.150;2022-12-18T12:49:56;-5.40;99.90
41694;DHT22;27377;50.666;9.150;2022-12-18T12:54:56;-5.30;99.90
41694;DHT22;27377;50.666;9.150;2022-12-18T12:57:33;-5.30;99.90
41694;DHT22;27377;50.666;9.150;2022-12-18T13:00:16;-5.20;99.90
41694;DHT22;27377;50.666;9.150;2022-12-18T13:08:10;-5.10;99.90
41694;DHT22;27377;50.666;9.150;2022-12-18T13:10:41;-5.10;99.90
41694;DHT22;27377;50.666;9.150;2022-12-18T13:13:09;-5.10;99.90
41694;DHT22;27377;50.666;9.150;2022-12-18T13:15:48;-5.00;99.90
41694;DHT22;27377;50.666;9.150;2022-12-18T13:18:23;-5.00;99.90
41694;DHT22;27377;50.666;9.150;2022-12-18T13:25:51;-4.90;99.90
41694;DHT22;27377;50.666;9.150;2022-12-18T13:34:24;-4.90;99.90
41694;DHT22;27377;50.666;9.150;2022-12-18T13:36:52;-4.90;99.90
41694;DHT22;27377;50.666;9.150;2022-12-18T13:41:45;-4.90;99.90
41694;DHT22;27377;50.666;9.150;2022-12-18T13:46:59;-4.90;99.90
41694;DHT22;27377;50.666;9.150;2022-12-18T13:49:36;-4.90;99.90
41694;DHT22;27377;50.666;9.150;2022-12-18T13:52:35;-4.90;99.90
41694;DHT22;27377;50.666;9.150;2022-12-18T13:55:04;-4.80;99.90
41694;DHT22;27377;50.666;9.150;2022-12-18T13:57:33;-4.80;99.90
41694;DHT22;27377;50.666;9.150;2022-12-18T14:02:45;-4.80;99.90
41694;DHT22;27377;50.666;9.150;2022-12-18T14:05:30;-4.80;99.90
41694;DHT22;27377;50.666;9.150;2022-12-18T14:08:15;-4.80;99.90
41694;DHT22;27377;50.666;9.150;2022-12-18T14:10:47;-4.80;99.90
41694;DHT22;27377;50.666;9.150;2022-12-18T14:13:31;-4.80;99.90
41694;DHT22;27377;50.666;9.150;2022-12-18T14:15:57;-4.80;99.90
41694;DHT22;27377;50.666;9.150;2022-12-18T14:20:59;-4.90;99.90
41694;DHT22;27377;50.666;9.150;2022-12-18T14:23:32;-4.90;99.90
41694;DHT22;27377;50.666;9.150;2022-12-18T14:25:59;-4.90;99.90
41694;DHT22;27377;50.666;9.150;2022-12-18T14:28:24;-4.90;99.90
41694;DHT22;27377;50.666;9.150;2022-12-18T14:30:52;-4.90;99.90
41694;DHT22;27377;50.666;9.150;2022-12-18T14:33:24;-4.90;99.90
41694;DHT22;27377;50.666;9.150;2022-12-18T14:35:58;-4.90;99.90
41694;DHT22;27377;50.666;9.150;2022-12-18T14:38:31;-4.90;99.90
41694;DHT22;27377;50.666;9.150;2022-12-18T14:41:00;-4.90;99.90
41694;DHT22;27377;50.666;9.150;2022-12-18T14:43:28;-4.90;99.90
41694;DHT22;27377;50.666;9.150;2022-12-18T14:45:54;-4.90;99.90
41694;DHT22;27377;50.666;9.150;2022-12-18T14:51:02;-4.90;99.90
41694;DHT22;27377;50.666;9.150;2022-12-18T14:53:40;-5.00;99.90
41694;DHT22;27377;50.666;9.150;2022-12-18T14:56:15;-5.00;99.90
41694;DHT22;27377;50.666;9.150;2022-12-18T14:59:06;-5.00;99.90
41694;DHT22;27377;50.666;9.150;2022-12-18T15:01:44;-5.00;99.90
41694;DHT22;27377;50.666;9.150;2022-12-18T15:04:29;-5.00;99.90
41694;DHT22;27377;50.666;9.150;2022-12-18T15:09:38;-5.10;99.90
41694;DHT22;27377;50.666;9.150;2022-12-18T15:12:04;-5.10;99.90
41694;DHT22;27377;50.666;9.150;2022-12-18T15:14:38;-5.10;99.90
41694;DHT22;27377;50.666;9.150;2022-12-18T15:17:20;-5.10;99.90
41694;DHT22;27377;50.666;9.150;2022-12-18T15:19:48;-5.10;99.90
41694;DHT22;27377;50.666;9.150;2022-12-18T15:22:20;-5.10;99.90
41694;DHT22;27377;50.666;9.150;2022-12-18T15:24:46;-5.20;99.90
41694;DHT22;27377;50.666;9.150;2022-12-18T15:27:30;-5.20;99.90
41694;DHT22;27377;50.666;9.150;2022-12-18T15:30:02;-5.20;99.90
41694;DHT22;27377;50.666;9.150;2022-12-18T15:32:27;-5.20;99.90
41694;DHT22;27377;50.666;9.150;2022-12-18T15:35:23;-5.20;99.90
41694;DHT22;27377;50.666;9.150;2022-12-18T15:37:52;-5.20;99.90
41694;DHT22;27377;50.666;9.150;2022-12-18T15:40:21;-5.20;99.90
41694;DHT22;27377;50.666;9.150;2022-12-18T15:42:48;-5.20;99.90
41694;DHT22;27377;50.666;9.150;2022-12-18T15:45:32;-5.20;99.90
41694;DHT22;27377;50.666;9.150;2022-12-18T15:47:58;-5.20;99.90
41694;DHT22;27377;50.666;9.150;2022-12-18T15:50:24;-5.20;99.90
41694;DHT22;27377;50.666;9.150;2022-12-18T15:52:52;-5.20;99.90
41694;DHT22;27377;50.666;9.150;2022-12-18T15:55:22;-5.20;99.90
41694;DHT22;27377;50.666;9.150;2022-12-18T15:58:08;-5.20;99.90
41694;DHT22;27377;50.666;9.150;2022-12-18T16:00:36;-5.20;99.90
41694;DHT22;27377;50.666;9.150;2022-12-18T16:03:04;-5.20;99.90
41694;DHT22;27377;50.666;9.150;2022-12-18T16:05:30;-5.20;99.90
41694;DHT22;27377;50.666;9.150;2022-12-18T16:07:56;-5.20;99.90
41694;DHT22;27377;50.666;9.150;2022-12-18T16:10:22;-5.20;99.90
41694;DHT22;27377;50.666;9.150;2022-12-18T16:12:49;-5.20;99.90
41694;DHT22;27377;50.666;9.150;2022-12-18T16:15:16;-5.20;99.90
41694;DHT22;27377;50.666;9.150;2022-12-18T16:17:43;-5.20;99.90
41694;DHT22;27377;50.666;9.150;2022-12-18T16:20:14;-5.30;99.90
41694;DHT22;27377;50.666;9.150;2022-12-18T16:22:41;-5.30;99.90
41694;DHT22;27377;50.666;9.150;2022-12-18T16:25:16;-5.30;99.90
41694;DHT22;27377;50.666;9.150;2022-12-18T16:27:42;-5.30;99.90
41694;DHT22;27377;50.666;9.150;2022-12-18T16:30:15;-5.30;99.90
41694;DHT22;27377;50.666;9.150;2022-12-18T16:32:41;-5.30;99.90
41694;DHT22;27377;50.666;9.150;2022-12-18T16:35:10;-5.30;99.90
41694;DHT22;27377;50.666;9.150;2022-12-18T16:37:36;-5.20;99.90
41694;DHT22;27377;50.666;9.150;2022-12-18T16:40:02;-5.20;99.90
41694;DHT22;27377;50.666;9.150;2022-12-18T16:42:28;-5.30;99.90
41694;DHT22;27377;50.666;9.150;2022-12-18T16:44:54;-5.30;99.90
41694;DHT22;27377;50.666;9.150;2022-12-18T16:47:19;-5.20;99.90
41694;DHT22;27377;50.666;9.150;2022-12-18T16:49:45;-5.30;99.90
41694;DHT22;27377;50.666;9.150;2022-12-18T16:52:12;-5.30;99.90
41694;DHT22;27377;50.666;9.150;2022-12-18T16:54:38;-5.20;99.90
41694;DHT22;27377;50.666;9.150;2022-12-18T16:57:03;-5.20;99.90
41694;DHT22;27377;50.666;9.150;2022-12-18T16:59:29;-5.20;99.90
41694;DHT22;27377;50.666;9.150;2022-12-18T17:01:55;-5.30;99.90
41694;DHT22;27377;50.666;9.150;2022-12-18T17:04:21;-5.20;99.90